createdAt,value
2023-05-19T00:01:45.444Z,99313.38
2023-05-19T00:04:15.249Z,99312.09
2023-05-19T00:06:42.627Z,99317.50
2023-05-19T00:09:14.254Z,99312.59
2023-05-19T00:11:41.206Z,99307.97
2023-05-19T00:14:10.002Z,99319.06
2023-05-19T00:16:38.117Z,99314.78
2023-05-19T00:19:10.066Z,99305.84
2023-05-19T00:21:40.479Z,99310.59
2023-05-19T00:24:20.616Z,99308.84
2023-05-19T00:26:47.413Z,99297.06
2023-05-19T00:29:19.427Z,99293.09
2023-05-19T00:31:57.896Z,99288.00
2023-05-19T00:34:24.589Z,99294.00
2023-05-19T00:36:51.745Z,99293.66
2023-05-19T00:39:24.260Z,99290.91
2023-05-19T00:41:53.087Z,99290.28
2023-05-19T00:44:19.815Z,99287.66
2023-05-19T00:46:46.528Z,99287.28
2023-05-19T00:49:16.135Z,99290.28
2023-05-19T00:51:42.975Z,99277.06
2023-05-19T00:54:09.967Z,99285.03
2023-05-19T00:56:36.578Z,99279.88
2023-05-19T00:59:03.494Z,99269.81
2023-05-19T01:01:32.272Z,99279.72
2023-05-19T01:04:00.522Z,99279.81
2023-05-19T01:06:38.591Z,99281.63
2023-05-19T01:09:05.351Z,99275.69
2023-05-19T01:11:32.017Z,99283.59
2023-05-19T01:13:58.566Z,99286.09
2023-05-19T01:16:35.320Z,99280.91
2023-05-19T01:19:34.051Z,99279.25
2023-05-19T01:22:13.049Z,99280.72
2023-05-19T01:25:17.776Z,99278.56
2023-05-19T01:28:10.078Z,99278.72
2023-05-19T01:30:40.399Z,99276.16
2023-05-19T01:33:12.381Z,99282.13
2023-05-19T01:35:40.583Z,99281.25
2023-05-19T01:38:13.721Z,99288.09
2023-05-19T01:40:43.643Z,99286.19
2023-05-19T01:43:19.186Z,99282.31
2023-05-19T01:45:47.850Z,99286.31
2023-05-19T01:48:15.349Z,99288.22
2023-05-19T01:50:51.562Z,99292.81
2023-05-19T01:53:18.309Z,99293.09
2023-05-19T01:55:54.919Z,99298.38
2023-05-19T01:58:44.790Z,99299.09
2023-05-19T02:01:42.091Z,99295.97
2023-05-19T02:05:22.779Z,99286.31
2023-05-19T02:08:10.323Z,99285.72
2023-05-19T02:10:41.421Z,99281.22
2023-05-19T02:13:13.593Z,99294.50
2023-05-19T02:15:46.503Z,99288.41
2023-05-19T02:18:22.721Z,99287.41
2023-05-19T02:20:49.248Z,99282.66
2023-05-19T02:23:15.829Z,99285.91
2023-05-19T02:25:42.879Z,99278.44
2023-05-19T02:28:09.420Z,99276.59
2023-05-19T02:30:36.070Z,99275.38
2023-05-19T02:33:06.592Z,99286.00
2023-05-19T02:35:39.175Z,99283.41
2023-05-19T02:38:18.022Z,99282.16
2023-05-19T02:40:44.569Z,99277.97
2023-05-19T02:43:11.144Z,99284.03
2023-05-19T02:45:37.665Z,99273.00
2023-05-19T02:48:04.704Z,99279.81
2023-05-19T02:50:31.504Z,99272.72
2023-05-19T02:53:03.949Z,99276.91
2023-05-19T02:55:30.468Z,99275.03
2023-05-19T02:57:56.964Z,99270.63
2023-05-19T03:00:23.519Z,99273.53
2023-05-19T03:02:50.132Z,99269.88
2023-05-19T03:05:16.823Z,99275.06
2023-05-19T03:07:43.359Z,99281.34
2023-05-19T03:10:10.415Z,99275.88
2023-05-19T03:12:36.911Z,99272.22
2023-05-19T03:15:03.627Z,99267.75
2023-05-19T03:17:34.032Z,99278.91
2023-05-19T03:20:01.456Z,99274.84
2023-05-19T03:22:28.079Z,99278.56
2023-05-19T03:24:54.731Z,99276.72
2023-05-19T03:27:30.224Z,99284.22
2023-05-19T03:30:06.636Z,99274.06
2023-05-19T03:32:38.182Z,99268.00
2023-05-19T03:35:05.635Z,99268.66
2023-05-19T03:37:35.004Z,99263.16
2023-05-19T03:40:01.594Z,99262.06
2023-05-19T03:42:28.124Z,99260.72
2023-05-19T03:44:57.630Z,99264.56
2023-05-19T03:47:25.248Z,99259.06
2023-05-19T03:49:51.770Z,99264.66
2023-05-19T03:52:27.216Z,99263.03
2023-05-19T03:54:57.738Z,99261.19
2023-05-19T03:57:24.402Z,99266.16
2023-05-19T03:59:50.943Z,99270.72
2023-05-19T04:02:22.803Z,99271.63
2023-05-19T04:04:50.486Z,99272.19
2023-05-19T04:07:17.287Z,99282.38
2023-05-19T04:09:43.860Z,99284.28
2023-05-19T04:12:10.582Z,99286.03
2023-05-19T04:14:42.655Z,99287.97
2023-05-19T04:17:09.329Z,99273.72
2023-05-19T04:19:37.575Z,99278.44
2023-05-19T04:22:04.276Z,99276.44
2023-05-19T04:24:31.042Z,99274.34
2023-05-19T04:27:02.368Z,99273.97
2023-05-19T04:29:29.475Z,99280.69
2023-05-19T04:32:03.555Z,99276.44
2023-05-19T04:34:30.654Z,99274.56
2023-05-19T04:36:58.534Z,99276.81
2023-05-19T04:39:25.623Z,99281.81
2023-05-19T04:41:54.023Z,99281.69
2023-05-19T04:44:26.353Z,99286.84
2023-05-19T04:46:54.406Z,99279.72
2023-05-19T04:49:24.222Z,99278.84
2023-05-19T04:51:56.657Z,99279.50
2023-05-19T04:54:23.182Z,99285.41
2023-05-19T04:56:58.501Z,99280.53
2023-05-19T04:59:25.012Z,99275.38
2023-05-19T05:01:55.494Z,99274.50
2023-05-19T05:04:23.756Z,99276.53
2023-05-19T05:06:50.584Z,99278.41
2023-05-19T05:09:18.926Z,99283.88
2023-05-19T05:11:46.050Z,99275.00
2023-05-19T05:14:13.027Z,99276.56
2023-05-19T05:16:39.941Z,99276.66
2023-05-19T05:19:06.924Z,99276.16
2023-05-19T05:21:36.075Z,99274.91
2023-05-19T05:24:03.114Z,99273.88
2023-05-19T05:26:33.818Z,99281.50
2023-05-19T05:29:00.466Z,99286.34
2023-05-19T05:31:27.035Z,99280.47
2023-05-19T05:34:02.208Z,99276.69
2023-05-19T05:36:28.761Z,99277.69
2023-05-19T05:38:55.350Z,99270.78
2023-05-19T05:41:22.082Z,99277.22
2023-05-19T05:44:02.436Z,99277.66
2023-05-19T05:46:29.402Z,99279.81
2023-05-19T05:48:56.615Z,99275.22
2023-05-19T05:51:23.783Z,99271.97
2023-05-19T05:53:54.024Z,99268.22
2023-05-19T05:56:22.063Z,99267.41
2023-05-19T05:58:49.474Z,99265.56
2023-05-19T06:01:17.726Z,99266.56
2023-05-19T06:03:44.978Z,99269.47
2023-05-19T06:06:17.480Z,99267.75
2023-05-19T06:08:44.015Z,99266.75
2023-05-19T06:11:13.338Z,99273.31
2023-05-19T06:13:45.390Z,99267.66
2023-05-19T06:16:11.947Z,99267.53
2023-05-19T06:18:44.146Z,99261.41
2023-05-19T06:21:13.194Z,99257.59
2023-05-19T06:23:43.543Z,99264.56
2023-05-19T06:26:10.112Z,99259.72
2023-05-19T06:28:36.668Z,99262.19
2023-05-19T06:31:03.347Z,99259.44
2023-05-19T06:33:29.910Z,99265.44
2023-05-19T06:35:56.468Z,99257.41
2023-05-19T06:38:23.104Z,99257.91
2023-05-19T06:40:49.600Z,99253.81
2023-05-19T06:43:16.101Z,99252.22
2023-05-19T06:45:42.559Z,99259.84
2023-05-19T06:48:09.175Z,99251.91
2023-05-19T06:50:38.475Z,99258.44
2023-05-19T06:53:06.062Z,99250.75
2023-05-19T06:55:34.425Z,99252.28
2023-05-19T06:58:03.718Z,99250.34
2023-05-19T07:00:30.219Z,99251.75
2023-05-19T07:02:56.820Z,99251.91
2023-05-19T07:05:23.370Z,99252.81
2023-05-19T07:07:49.962Z,99249.22
2023-05-19T07:10:19.364Z,99247.22
2023-05-19T07:12:46.169Z,99247.22
2023-05-19T07:15:12.841Z,99241.75
2023-05-19T07:17:39.438Z,99243.59
2023-05-19T07:20:07.097Z,99248.13
2023-05-19T07:22:36.852Z,99242.75
2023-05-19T07:25:03.434Z,99233.31
2023-05-19T07:27:30.000Z,99234.22
2023-05-19T07:30:07.362Z,99237.69
2023-05-19T07:32:33.915Z,99234.97
2023-05-19T07:35:00.570Z,99235.94
2023-05-19T07:37:27.333Z,99232.47
2023-05-19T07:39:53.908Z,99233.31
2023-05-19T07:42:20.465Z,99229.56
2023-05-19T07:44:47.009Z,99229.84
2023-05-19T07:47:25.216Z,99224.84
2023-05-19T07:49:52.063Z,99231.31
2023-05-19T07:52:18.774Z,99232.78
2023-05-19T07:54:45.986Z,99224.88
2023-05-19T07:57:12.624Z,99227.78
2023-05-19T07:59:39.237Z,99222.31
2023-05-19T08:02:06.447Z,99215.81
2023-05-19T08:04:33.314Z,99218.00
2023-05-19T08:06:59.896Z,99217.03
2023-05-19T08:09:26.593Z,99217.16
2023-05-19T08:11:53.422Z,99212.84
2023-05-19T08:14:22.671Z,99215.50
2023-05-19T08:16:49.955Z,99220.19
2023-05-19T08:19:16.564Z,99216.00
2023-05-19T08:21:45.071Z,99214.19
2023-05-19T08:24:11.659Z,99205.50
2023-05-19T08:26:38.287Z,99212.25
2023-05-19T08:29:05.026Z,99212.84
2023-05-19T08:31:31.784Z,99204.34
2023-05-19T08:33:58.367Z,99202.59
2023-05-19T08:36:24.887Z,99197.28
2023-05-19T08:38:56.289Z,99188.28
2023-05-19T08:41:23.333Z,99188.53
2023-05-19T08:43:50.161Z,99187.28
2023-05-19T08:46:17.026Z,99183.84
2023-05-19T08:48:47.533Z,99173.28
2023-05-19T08:51:24.451Z,99173.59
2023-05-19T08:53:57.666Z,99176.59
2023-05-19T08:56:32.550Z,99164.66
2023-05-19T08:59:00.431Z,99156.88
2023-05-19T09:01:28.887Z,99168.56
2023-05-19T09:03:55.958Z,99160.69
2023-05-19T09:06:29.060Z,99159.28
2023-05-19T09:08:56.899Z,99158.28
2023-05-19T09:11:23.523Z,99161.75
2023-05-19T09:13:50.442Z,99158.66
2023-05-19T09:16:17.772Z,99163.28
2023-05-19T09:18:58.231Z,99174.38
2023-05-19T09:21:36.388Z,99174.81
2023-05-19T09:24:09.519Z,99155.75
2023-05-19T09:26:50.610Z,99152.63
2023-05-19T09:29:18.308Z,99150.03
2023-05-19T09:32:06.593Z,99151.13
2023-05-19T09:34:33.233Z,99147.44
2023-05-19T09:36:59.903Z,99140.78
2023-05-19T09:39:26.691Z,99144.50
2023-05-19T09:41:56.168Z,99144.66
2023-05-19T09:44:31.235Z,99131.50
2023-05-19T09:46:58.696Z,99130.25
2023-05-19T09:49:30.395Z,99131.78
2023-05-19T09:52:07.714Z,99128.63
2023-05-19T09:54:34.797Z,99135.97
2023-05-19T09:57:04.837Z,99138.41
2023-05-19T09:59:33.656Z,99136.75
2023-05-19T10:02:02.733Z,99129.19
2023-05-19T10:04:30.883Z,99130.09
2023-05-19T10:06:59.670Z,99132.66
2023-05-19T10:09:29.511Z,99131.25
2023-05-19T10:11:58.428Z,99126.63
2023-05-19T10:14:28.653Z,99113.69
2023-05-19T10:16:59.670Z,99124.22
2023-05-19T10:19:29.640Z,99124.81
2023-05-19T10:21:56.880Z,99126.91
2023-05-19T10:24:24.253Z,99124.53
2023-05-19T10:27:07.752Z,99120.59
2023-05-19T10:29:40.500Z,99118.63
2023-05-19T10:32:14.484Z,99120.19
2023-05-19T10:35:11.622Z,99113.72
2023-05-19T10:38:10.484Z,99112.69
2023-05-19T10:40:43.713Z,99112.69
2023-05-19T10:44:04.232Z,99102.25
2023-05-19T10:46:31.173Z,99095.94
2023-05-19T10:48:57.802Z,99094.66
2023-05-19T10:51:34.844Z,99106.75
2023-05-19T10:54:15.920Z,99101.28
2023-05-19T10:56:47.396Z,99098.50
2023-05-19T10:59:39.943Z,99094.88
2023-05-19T11:02:08.730Z,99095.44
2023-05-19T11:04:49.547Z,99107.00
2023-05-19T11:07:20.389Z,99103.41
2023-05-19T11:09:53.982Z,99092.19
2023-05-19T11:12:24.677Z,99101.13
2023-05-19T11:14:59.220Z,99091.81
2023-05-19T11:17:27.333Z,99082.53
2023-05-19T11:19:57.105Z,99081.06
2023-05-19T11:22:28.088Z,99080.69
2023-05-19T11:24:58.056Z,99084.00
2023-05-19T11:27:32.844Z,99078.25
2023-05-19T11:30:07.555Z,99077.50
2023-05-19T11:32:39.190Z,99073.47
2023-05-19T11:35:08.025Z,99064.78
2023-05-19T11:37:37.966Z,99070.00
2023-05-19T11:40:09.582Z,99067.25
2023-05-19T11:42:37.235Z,99067.28
2023-05-19T11:45:05.251Z,99071.34
2023-05-19T11:47:47.062Z,99060.31
2023-05-19T11:50:22.783Z,99059.00
2023-05-19T11:52:54.205Z,99059.94
2023-05-19T11:55:22.416Z,99054.19
2023-05-19T11:58:05.801Z,99048.31
2023-05-19T12:00:40.435Z,99050.41
2023-05-19T12:03:08.739Z,99047.50
2023-05-19T12:05:45.366Z,99045.94
2023-05-19T12:08:12.890Z,99050.97
2023-05-19T12:10:40.404Z,99054.28
2023-05-19T12:13:11.022Z,99031.97
2023-05-19T12:15:37.882Z,99040.16
2023-05-19T12:18:04.616Z,99037.03
2023-05-19T12:20:32.575Z,99043.84
2023-05-19T12:23:00.737Z,99044.69
2023-05-19T12:25:29.738Z,99030.75
2023-05-19T12:28:05.519Z,99034.91
2023-05-19T12:30:33.322Z,99029.09
2023-05-19T12:33:02.490Z,99022.38
2023-05-19T12:35:35.856Z,99034.91
2023-05-19T12:38:12.196Z,99017.94
2023-05-19T12:40:42.417Z,99015.44
2023-05-19T12:43:19.135Z,99014.63
2023-05-19T12:45:45.863Z,99010.59
2023-05-19T12:48:12.744Z,99009.94
2023-05-19T12:50:39.528Z,99004.72
2023-05-19T12:53:10.946Z,99004.38
2023-05-19T12:55:45.533Z,99002.16
2023-05-19T12:58:12.607Z,98996.69
2023-05-19T13:00:45.286Z,98990.91
2023-05-19T13:03:20.458Z,98996.19
2023-05-19T13:05:50.669Z,99000.13
2023-05-19T13:08:20.575Z,98986.88
2023-05-19T13:10:49.077Z,98995.56
2023-05-19T13:13:16.629Z,98988.19
2023-05-19T13:15:46.235Z,98980.97
2023-05-19T13:18:13.981Z,98988.78
2023-05-19T13:20:43.178Z,98991.50
2023-05-19T13:23:14.284Z,98990.66
2023-05-19T13:25:41.973Z,98991.38
2023-05-19T13:28:09.527Z,98985.22
2023-05-19T13:30:39.016Z,98979.19
2023-05-19T13:33:06.212Z,98986.41
2023-05-19T13:35:36.955Z,98970.69
2023-05-19T13:38:10.079Z,98972.38
2023-05-19T13:40:37.545Z,98970.75
2023-05-19T13:43:05.084Z,98971.84
2023-05-19T13:45:31.968Z,98981.94
2023-05-19T13:47:58.698Z,98981.91
2023-05-19T13:50:25.403Z,98976.94
2023-05-19T13:52:51.984Z,98964.84
2023-05-19T13:55:18.904Z,98969.50
2023-05-19T13:57:45.562Z,98966.66
2023-05-19T14:00:12.683Z,98969.84
2023-05-19T14:02:39.663Z,98967.34
2023-05-19T14:05:07.797Z,98970.84
2023-05-19T14:07:36.603Z,98967.00
2023-05-19T14:10:06.646Z,98974.69
2023-05-19T14:12:44.902Z,98975.06
2023-05-19T14:15:19.666Z,98971.50
2023-05-19T14:17:46.348Z,98975.84
2023-05-19T14:20:13.212Z,98960.78
2023-05-19T14:22:39.756Z,98959.13
2023-05-19T14:25:07.224Z,98958.09
2023-05-19T14:27:33.780Z,98960.91
2023-05-19T14:30:00.405Z,98966.31
2023-05-19T14:32:30.115Z,98955.41
2023-05-19T14:34:56.983Z,98961.81
2023-05-19T14:37:24.164Z,98962.13
2023-05-19T14:39:50.738Z,98961.28
2023-05-19T14:42:17.217Z,98958.97
2023-05-19T14:44:43.934Z,98965.34
2023-05-19T14:47:11.240Z,98962.09
2023-05-19T14:49:38.184Z,98968.63
2023-05-19T14:52:04.934Z,98971.84
2023-05-19T14:54:31.511Z,98968.53
2023-05-19T14:56:58.155Z,98958.09
2023-05-19T14:59:24.976Z,98970.50
2023-05-19T15:01:51.570Z,98971.72
2023-05-19T15:04:18.102Z,98972.69
2023-05-19T15:06:48.110Z,98976.56
2023-05-19T15:09:16.876Z,98971.00
2023-05-19T15:11:43.440Z,98961.81
2023-05-19T15:14:10.010Z,98966.53
2023-05-19T15:16:36.630Z,98959.31
2023-05-19T15:19:03.214Z,98963.13
2023-05-19T15:21:29.763Z,98967.84
2023-05-19T15:23:56.323Z,98960.31
2023-05-19T15:26:22.939Z,98954.97
2023-05-19T15:28:49.537Z,98961.47
2023-05-19T15:31:16.255Z,98951.41
2023-05-19T15:33:42.772Z,98956.41
2023-05-19T15:36:11.122Z,98955.91
2023-05-19T15:38:37.619Z,98953.72
2023-05-19T15:41:08.440Z,98950.91
2023-05-19T15:43:41.418Z,98944.69
2023-05-19T15:46:08.035Z,98947.88
2023-05-19T15:48:34.730Z,98945.72
2023-05-19T15:51:01.651Z,98951.88
2023-05-19T15:53:28.227Z,98942.03
2023-05-19T15:55:54.769Z,98949.72
2023-05-19T15:58:21.304Z,98951.56
2023-05-19T16:00:47.891Z,98946.03
2023-05-19T16:03:14.662Z,98949.41
2023-05-19T16:05:41.259Z,98943.84
2023-05-19T16:08:08.796Z,98945.38
2023-05-19T16:10:40.963Z,98946.53
2023-05-19T16:13:10.643Z,98938.47
2023-05-19T16:15:37.222Z,98932.75
2023-05-19T16:18:04.525Z,98929.81
2023-05-19T16:20:31.368Z,98926.75
2023-05-19T16:22:58.397Z,98921.75
2023-05-19T16:25:25.011Z,98923.91
2023-05-19T16:27:52.311Z,98922.44
2023-05-19T16:30:18.889Z,98921.09
2023-05-19T16:32:45.789Z,98918.56
2023-05-19T16:35:12.400Z,98922.75
2023-05-19T16:37:38.991Z,98919.78
2023-05-19T16:40:06.854Z,98920.19
2023-05-19T16:42:33.425Z,98934.72
2023-05-19T16:44:59.922Z,98935.38
2023-05-19T16:47:30.934Z,98926.47
2023-05-19T16:49:57.556Z,98927.09
2023-05-19T16:52:24.095Z,98925.78
2023-05-19T16:54:50.668Z,98920.38
2023-05-19T16:57:17.220Z,98923.44
2023-05-19T16:59:43.794Z,98914.50
2023-05-19T17:02:10.495Z,98926.56
2023-05-19T17:04:37.106Z,98923.03
2023-05-19T17:07:03.981Z,98917.34
2023-05-19T17:09:31.274Z,98912.28
2023-05-19T17:11:57.880Z,98913.56
2023-05-19T17:14:24.449Z,98918.44
2023-05-19T17:16:52.416Z,98920.53
2023-05-19T17:19:19.170Z,98921.31
2023-05-19T17:21:46.265Z,98926.56
2023-05-19T17:24:12.865Z,98922.19
2023-05-19T17:26:39.538Z,98921.75
2023-05-19T17:29:06.076Z,98932.91
2023-05-19T17:31:32.695Z,98936.50
2023-05-19T17:33:59.209Z,98937.81
2023-05-19T17:36:26.319Z,98935.97
2023-05-19T17:38:54.035Z,98924.00
2023-05-19T17:41:21.023Z,98928.84
2023-05-19T17:44:02.675Z,98933.34
2023-05-19T17:46:34.535Z,98936.59
2023-05-19T17:49:12.654Z,98937.28
2023-05-19T17:51:39.752Z,98935.59
2023-05-19T17:54:09.264Z,98948.88
2023-05-19T17:56:41.828Z,98946.78
2023-05-19T17:59:08.930Z,98944.69
2023-05-19T18:01:36.054Z,98947.56
2023-05-19T18:04:03.666Z,98945.63
2023-05-19T18:06:31.643Z,98954.75
2023-05-19T18:09:01.145Z,98952.84
2023-05-19T18:11:28.060Z,98957.25
2023-05-19T18:13:54.811Z,98954.75
2023-05-19T18:16:21.505Z,98959.47
2023-05-19T18:18:50.457Z,98961.03
2023-05-19T18:21:18.277Z,98959.13
2023-05-19T18:23:46.250Z,98963.88
2023-05-19T18:26:24.418Z,98969.88
2023-05-19T18:29:02.316Z,98970.94
2023-05-19T18:31:28.929Z,98974.91
2023-05-19T18:34:03.464Z,98973.97
2023-05-19T18:36:30.600Z,98975.16
2023-05-19T18:39:00.289Z,98979.41
2023-05-19T18:41:26.854Z,98982.84
2023-05-19T18:43:54.072Z,98983.03
2023-05-19T18:46:26.014Z,98982.69
2023-05-19T18:48:52.847Z,98991.59
2023-05-19T18:51:21.232Z,98993.78
2023-05-19T18:53:49.937Z,98990.03
2023-05-19T18:56:27.188Z,98996.69
2023-05-19T18:58:57.519Z,98989.13
2023-05-19T19:01:24.149Z,98992.06
2023-05-19T19:03:51.209Z,98997.66
2023-05-19T19:06:17.767Z,98992.03
2023-05-19T19:08:44.635Z,98995.16
2023-05-19T19:11:11.232Z,98995.16
2023-05-19T19:13:38.235Z,98996.56
2023-05-19T19:16:06.112Z,98997.81
2023-05-19T19:18:34.449Z,98995.25
2023-05-19T19:21:02.489Z,98994.13
2023-05-19T19:23:32.487Z,99003.44
2023-05-19T19:25:59.080Z,99011.25
2023-05-19T19:28:25.832Z,99012.59
2023-05-19T19:30:52.590Z,99011.03
2023-05-19T19:33:19.311Z,99012.94
2023-05-19T19:35:52.166Z,99013.59
2023-05-19T19:38:18.746Z,99018.56
2023-05-19T19:40:45.530Z,99022.72
2023-05-19T19:43:12.098Z,99022.63
2023-05-19T19:45:48.796Z,99021.22
2023-05-19T19:48:17.975Z,99031.22
2023-05-19T19:50:44.575Z,99026.16
2023-05-19T19:53:11.369Z,99028.94
2023-05-19T19:55:37.980Z,99025.38
2023-05-19T19:58:04.533Z,99029.66
2023-05-19T20:00:31.332Z,99031.47
2023-05-19T20:03:05.053Z,99033.41
2023-05-19T20:05:32.524Z,99031.38
2023-05-19T20:07:59.162Z,99031.84
2023-05-19T20:10:28.308Z,99037.88
2023-05-19T20:13:01.728Z,99049.34
2023-05-19T20:15:28.271Z,99044.19
2023-05-19T20:17:54.886Z,99054.44
2023-05-19T20:20:21.623Z,99056.00
2023-05-19T20:22:48.103Z,99053.84
2023-05-19T20:25:14.736Z,99046.59
2023-05-19T20:27:41.280Z,99052.63
2023-05-19T20:30:11.107Z,99051.44
2023-05-19T20:32:54.015Z,99048.13
2023-05-19T20:35:26.850Z,99048.97
2023-05-19T20:37:53.478Z,99050.53
2023-05-19T20:40:20.087Z,99053.28
2023-05-19T20:42:46.597Z,99053.47
2023-05-19T20:45:13.156Z,99054.28
2023-05-19T20:47:45.352Z,99054.50
2023-05-19T20:50:12.049Z,99054.16
2023-05-19T20:52:38.601Z,99061.34
2023-05-19T20:55:05.505Z,99062.31
2023-05-19T20:57:32.054Z,99060.50
2023-05-19T20:59:59.469Z,99064.69
2023-05-19T21:02:26.002Z,99065.56
2023-05-19T21:04:52.578Z,99065.91
2023-05-19T21:07:19.484Z,99065.06
2023-05-19T21:09:51.330Z,99064.09
2023-05-19T21:12:19.038Z,99071.06
2023-05-19T21:14:47.076Z,99054.44
2023-05-19T21:17:13.637Z,99070.31
2023-05-19T21:19:40.259Z,99063.78
2023-05-19T21:22:13.313Z,99065.19
2023-05-19T21:24:39.877Z,99068.00
2023-05-19T21:27:06.447Z,99055.72
2023-05-19T21:29:33.036Z,99053.81
2023-05-19T21:32:02.371Z,99052.75
2023-05-19T21:34:28.951Z,99055.06
2023-05-19T21:37:00.002Z,99058.69
2023-05-19T21:39:26.531Z,99058.28
2023-05-19T21:41:53.138Z,99054.69
2023-05-19T21:44:19.912Z,99055.44
2023-05-19T21:46:46.658Z,99067.59
2023-05-19T21:49:13.235Z,99063.19
2023-05-19T21:51:39.777Z,99058.34
2023-05-19T21:54:11.613Z,99060.66
2023-05-19T21:56:46.746Z,99064.69
2023-05-19T21:59:13.524Z,99062.56
2023-05-19T22:01:40.312Z,99063.59
2023-05-19T22:04:07.097Z,99071.41
2023-05-19T22:06:34.137Z,99071.19
2023-05-19T22:09:02.394Z,99064.63
2023-05-19T22:11:28.919Z,99067.22
2023-05-19T22:13:55.534Z,99058.00
2023-05-19T22:16:22.202Z,99061.38
2023-05-19T22:18:51.737Z,99059.91
2023-05-19T22:21:18.367Z,99058.34
2023-05-19T22:23:47.837Z,99055.91
2023-05-19T22:26:14.386Z,99054.22
2023-05-19T22:28:40.984Z,99053.19
2023-05-19T22:31:15.786Z,99053.78
2023-05-19T22:33:42.366Z,99057.25
2023-05-19T22:36:10.883Z,99061.19
2023-05-19T22:38:37.467Z,99052.03
2023-05-19T22:41:04.070Z,99056.34
2023-05-19T22:43:30.726Z,99047.75
2023-05-19T22:45:57.311Z,99054.63
2023-05-19T22:48:24.167Z,99047.00
2023-05-19T22:50:50.884Z,99043.19
2023-05-19T22:53:17.431Z,99044.66
2023-05-19T22:55:43.971Z,99049.44
2023-05-19T22:58:10.537Z,99049.97
2023-05-19T23:00:37.076Z,99050.34
2023-05-19T23:03:03.854Z,99049.72
2023-05-19T23:05:30.439Z,99043.66
2023-05-19T23:07:56.970Z,99048.50
2023-05-19T23:10:23.548Z,99048.97
2023-05-19T23:12:51.521Z,99044.94
2023-05-19T23:15:18.259Z,99041.09
2023-05-19T23:17:44.832Z,99042.50
2023-05-19T23:20:12.711Z,99040.59
2023-05-19T23:22:39.326Z,99045.16
2023-05-19T23:25:07.734Z,99040.41
2023-05-19T23:27:35.656Z,99040.94
2023-05-19T23:30:03.502Z,99041.06
2023-05-19T23:32:40.799Z,99038.22
2023-05-19T23:35:16.559Z,99045.78
2023-05-19T23:37:43.165Z,99040.41
2023-05-19T23:40:10.350Z,99034.47
2023-05-19T23:42:37.164Z,99035.09
2023-05-19T23:45:05.405Z,99030.50
2023-05-19T23:47:36.702Z,99032.09
2023-05-19T23:50:03.593Z,99035.59
2023-05-19T23:52:31.645Z,99033.63
2023-05-19T23:54:58.252Z,99033.75
2023-05-19T23:57:24.817Z,99032.59
2023-05-19T23:59:51.364Z,99035.44
